< Cyclone 197010 1970 Season Cyclone 197012 >
Cyclone 197011 (DIANE)
General InformationTrack Information on Google Maps || ResourceGoogle EarthGE AnimationAtom FeedGeoJSON
Detalied Best Track (Time Zone = UTC)
Year Month Day Hour Lat. Long. Pressure (hPa) Wind (kt) Class Image Chart
1970 1 3 00 -6.9 97.0 1009 0 0 -- --
1970 1 4 00 -7.9 95.0 1006 0 0 -- --
1970 1 4 12 -6.9 96.6 1005.33 0 0 -- --
1970 1 4 18 -7.5 96.4 1004.67 0 0 -- --
1970 1 5 00 -8.2 96.3 1004 0 0 -- --
1970 1 5 06 -9.0 96.2 1002 0 0 -- --
1970 1 5 12 -9.7 96.1 1000 0 0 -- --
1970 1 5 18 -10.2 96.0 998 0 0 -- --
1970 1 6 00 -10.8 95.9 996 0 0 -- --
1970 1 6 06 -11.5 95.6 996.5 0 0 -- --
1970 1 6 12 -12.2 95.1 997 0 0 -- --
1970 1 6 18 -12.9 95.1 997.5 0 0 -- --
1970 1 7 00 -13.7 94.9 998 0 0 -- --
1970 1 7 06 -14.6 93.3 998 0 0 -- --
1970 1 7 12 -15.4 91.4 998 0 0 -- --
1970 1 7 18 -15.9 90.2 998 0 0 -- --
1970 1 8 00 -16.3 89.0 998 0 0 -- --
1970 1 8 06 -16.7 88.0 998.5 0 0 -- --
1970 1 8 12 -17.1 87.0 999 0 0 -- --
1970 1 8 18 -17.5 85.4 999.5 0 0 -- --
1970 1 9 00 -17.9 83.9 1000 0 0 -- --
1970 1 9 06 -18.3 82.9 1001 0 0 -- --
1970 1 9 12 -18.7 82.0 1002 0 0 -- --
1970 1 9 18 -19.0 81.0 1003 0 0 -- --
1970 1 10 00 -19.4 79.9 1004 0 0 -- --
1970 1 10 06 -19.8 78.7 1004.5 0 0 -- --
1970 1 10 12 -20.2 77.5 1005 0 0 -- --
1970 1 10 18 -20.6 76.3 1005.5 0 0 -- --
1970 1 11 00 -21.0 75.1 1006 0 0 -- --
1970 1 11 06 -21.2 74.5 1006 0 0 -- --
1970 1 11 12 -21.3 74.4 1006 0 0 -- --
1970 1 11 18 -21.6 74.0 1006 0 0 -- --
1970 1 12 00 -21.8 73.6 1006 0 0 -- --
1970 1 12 06 -21.9 73.2 1006 0 0 -- --
1970 1 12 12 -22.0 72.8 1006 0 0 -- --
1970 1 12 18 -22.1 72.6 1006 0 0 -- --
1970 1 13 00 -22.3 72.4 1006 0 0 -- --
1970 1 13 06 -22.6 71.8 1007 0 0 -- --
1970 1 13 12 -22.9 71.2 1008 0 0 -- --
1970 1 13 18 -23.1 70.7 1009 0 0 -- --
1970 1 14 00 -23.4 70.1 1010 0 0 -- --
1970 1 14 06 -23.6 69.2 1010 0 0 -- --
1970 1 14 12 -23.9 68.3 1010 0 0 -- --
1970 1 14 18 -24.3 67.4 1010 0 0 -- --
1970 1 15 00 -24.7 66.5 1010 0 0 -- --
1970 1 15 06 -25.0 65.7 1010 0 0 -- --
1970 1 15 12 -25.4 64.9 1010 0 0 -- --
1970 1 15 18 -26.0 64.0 1010 0 0 -- --
1970 1 16 00 -26.7 63.0 1010 0 0 -- --
1970 1 16 06 -27.0 62.6 1010 0 0 -- --
1970 1 16 12 -27.4 62.3 1010 0 0 -- --
1970 1 16 18 -28.0 61.5 1010 0 0 -- --
1970 1 17 00 -28.7 60.3 1010 0 0 -- --
< Cyclone 197010 1970 Season Cyclone 197012 >

Help